createdAt,value
2022-10-09T00:01:07.824Z,17.16
2022-10-09T00:02:09.606Z,17.14
2022-10-09T00:03:13.015Z,17.08
2022-10-09T00:04:14.765Z,17.07
2022-10-09T00:05:16.656Z,17.07
2022-10-09T00:06:26.911Z,17.07
2022-10-09T00:07:28.684Z,17.06
2022-10-09T00:08:30.822Z,17.06
2022-10-09T00:09:32.587Z,17.06
2022-10-09T00:10:34.411Z,17.03
2022-10-09T00:11:36.161Z,17.02
2022-10-09T00:12:37.884Z,17.00
2022-10-09T00:13:39.729Z,16.99
2022-10-09T00:14:41.449Z,16.98
2022-10-09T00:15:46.358Z,16.98
2022-10-09T00:16:48.127Z,16.96
2022-10-09T00:17:50.000Z,16.95
2022-10-09T00:18:52.272Z,16.94
2022-10-09T00:19:54.004Z,16.92
2022-10-09T00:20:55.717Z,16.93
2022-10-09T00:21:57.412Z,16.92
2022-10-09T00:22:59.152Z,16.91
2022-10-09T00:24:04.049Z,16.92
2022-10-09T00:25:06.737Z,16.92
2022-10-09T00:26:08.596Z,16.91
2022-10-09T00:27:10.361Z,16.90
2022-10-09T00:28:12.101Z,16.90
2022-10-09T00:29:14.267Z,16.88
2022-10-09T00:30:16.144Z,16.87
2022-10-09T00:31:19.364Z,16.83
2022-10-09T00:32:21.280Z,16.83
2022-10-09T00:33:23.912Z,16.79
2022-10-09T00:34:25.652Z,16.78
2022-10-09T00:35:27.378Z,16.77
2022-10-09T00:36:29.592Z,16.76
2022-10-09T00:37:31.319Z,16.73
2022-10-09T00:38:34.147Z,16.73
2022-10-09T00:39:35.963Z,16.70
2022-10-09T00:40:38.677Z,16.68
2022-10-09T00:41:41.079Z,16.67
2022-10-09T00:42:45.426Z,16.65
2022-10-09T00:43:49.472Z,16.63
2022-10-09T00:45:02.052Z,16.62
2022-10-09T00:46:04.296Z,16.58
2022-10-09T00:47:06.082Z,16.55
2022-10-09T00:48:12.036Z,16.55
2022-10-09T00:49:32.777Z,16.50
2022-10-09T00:50:44.432Z,16.50
2022-10-09T00:51:49.275Z,16.49
2022-10-09T00:52:58.416Z,16.48
2022-10-09T00:54:03.601Z,16.47
2022-10-09T00:55:06.977Z,16.47
2022-10-09T00:56:08.750Z,16.45
2022-10-09T00:57:11.770Z,16.44
2022-10-09T00:58:14.505Z,16.42
2022-10-09T00:59:17.708Z,16.41
2022-10-09T01:00:19.882Z,16.38
2022-10-09T01:01:21.839Z,16.36
2022-10-09T01:02:23.654Z,16.36
2022-10-09T01:03:25.380Z,16.33
2022-10-09T01:04:27.109Z,16.33
2022-10-09T01:06:00.387Z,16.34
2022-10-09T01:07:25.056Z,16.34
2022-10-09T01:08:58.635Z,16.33
2022-10-09T01:10:21.225Z,16.32
2022-10-09T01:11:57.770Z,16.28
2022-10-09T01:13:36.167Z,16.26
2022-10-09T01:15:04.181Z,16.24
2022-10-09T01:16:35.847Z,16.23
2022-10-09T01:17:58.385Z,16.20
2022-10-09T01:19:31.997Z,16.18
2022-10-09T01:20:56.939Z,16.16
2022-10-09T01:22:32.280Z,16.15
2022-10-09T01:24:07.955Z,16.12
2022-10-09T01:25:19.702Z,16.12
2022-10-09T01:26:40.011Z,16.10
2022-10-09T01:27:42.169Z,16.07
2022-10-09T01:28:52.957Z,16.07
2022-10-09T01:30:05.811Z,16.06
2022-10-09T01:31:10.034Z,16.03
2022-10-09T01:32:17.410Z,16.04
2022-10-09T01:33:19.314Z,16.01
2022-10-09T01:34:23.450Z,16.01
2022-10-09T01:35:26.887Z,16.01
2022-10-09T01:36:31.058Z,16.01
2022-10-09T01:37:35.501Z,16.00
2022-10-09T01:38:41.223Z,15.97
2022-10-09T01:39:46.359Z,15.98
2022-10-09T01:40:49.773Z,15.94
2022-10-09T01:41:54.694Z,15.97
2022-10-09T01:42:59.303Z,15.93
2022-10-09T01:44:00.998Z,15.90
2022-10-09T01:45:02.873Z,15.92
2022-10-09T01:46:34.035Z,15.92
2022-10-09T01:47:37.572Z,15.89
2022-10-09T01:48:39.972Z,15.86
2022-10-09T01:50:07.664Z,15.88
2022-10-09T01:51:09.581Z,15.85
2022-10-09T01:52:55.777Z,15.85
2022-10-09T01:54:05.922Z,15.82
2022-10-09T01:55:53.386Z,15.80
2022-10-09T01:56:59.730Z,15.78
2022-10-09T01:58:19.306Z,15.75
2022-10-09T01:59:22.970Z,15.76
2022-10-09T02:00:26.400Z,15.75
2022-10-09T02:01:33.915Z,15.73
2022-10-09T02:02:37.797Z,15.70
2022-10-09T02:03:43.139Z,15.71
2022-10-09T02:04:46.198Z,15.68
2022-10-09T02:05:52.812Z,15.71
2022-10-09T02:06:55.388Z,15.69
2022-10-09T02:07:59.343Z,15.70
2022-10-09T02:09:06.224Z,15.68
2022-10-09T02:10:10.112Z,15.70
2022-10-09T02:11:17.167Z,15.70
2022-10-09T02:12:21.281Z,15.68
2022-10-09T02:13:23.910Z,15.67
2022-10-09T02:14:25.875Z,15.65
2022-10-09T02:15:42.464Z,15.66
2022-10-09T02:16:49.444Z,15.67
2022-10-09T02:17:57.623Z,15.65
2022-10-09T02:19:04.177Z,15.65
2022-10-09T02:20:22.698Z,15.64
2022-10-09T02:21:34.174Z,15.63
2022-10-09T02:22:36.600Z,15.58
2022-10-09T02:23:41.384Z,15.56
2022-10-09T02:24:44.422Z,15.53
2022-10-09T02:25:46.485Z,15.52
2022-10-09T02:26:48.704Z,15.50
2022-10-09T02:27:50.783Z,15.49
2022-10-09T02:28:53.057Z,15.47
2022-10-09T02:29:55.596Z,15.45
2022-10-09T02:31:20.824Z,15.46
2022-10-09T02:32:23.812Z,15.45
2022-10-09T02:33:33.773Z,15.43
2022-10-09T02:34:35.791Z,15.41
2022-10-09T02:35:39.146Z,15.37
2022-10-09T02:36:40.988Z,15.36
2022-10-09T02:37:42.700Z,15.37
2022-10-09T02:38:44.422Z,15.36
2022-10-09T02:39:46.221Z,15.33
2022-10-09T02:40:48.195Z,15.30
2022-10-09T02:41:49.891Z,15.31
2022-10-09T02:42:51.877Z,15.28
2022-10-09T02:43:54.060Z,15.27
2022-10-09T02:44:55.763Z,15.26
2022-10-09T02:45:57.450Z,15.25
2022-10-09T02:46:59.230Z,15.26
2022-10-09T02:48:00.953Z,15.23
2022-10-09T02:49:02.828Z,15.22
2022-10-09T02:50:05.214Z,15.21
2022-10-09T02:51:07.403Z,15.23
2022-10-09T02:52:09.224Z,15.23
2022-10-09T02:53:10.976Z,15.22
2022-10-09T02:54:12.745Z,15.24
2022-10-09T02:55:14.547Z,15.22
2022-10-09T02:56:16.335Z,15.23
2022-10-09T02:57:18.038Z,15.24
2022-10-09T02:58:19.725Z,15.23
2022-10-09T02:59:21.457Z,15.22
2022-10-09T03:00:23.200Z,15.21
2022-10-09T03:01:25.077Z,15.22
2022-10-09T03:02:26.917Z,15.20
2022-10-09T03:03:28.902Z,15.22
2022-10-09T03:04:30.625Z,15.21
2022-10-09T03:05:32.357Z,15.19
2022-10-09T03:06:34.208Z,15.18
2022-10-09T03:07:35.946Z,15.17
2022-10-09T03:08:41.905Z,15.17
2022-10-09T03:09:43.613Z,15.16
2022-10-09T03:10:45.347Z,15.16
2022-10-09T03:11:47.131Z,15.16
2022-10-09T03:12:49.142Z,15.15
2022-10-09T03:13:51.364Z,15.13
2022-10-09T03:14:53.076Z,15.12
2022-10-09T03:15:55.033Z,15.13
2022-10-09T03:16:57.536Z,15.11
2022-10-09T03:17:59.233Z,15.10
2022-10-09T03:19:01.023Z,15.10
2022-10-09T03:20:03.089Z,15.09
2022-10-09T03:21:10.934Z,15.10
2022-10-09T03:22:12.655Z,15.08
2022-10-09T03:23:14.420Z,15.05
2022-10-09T03:24:16.113Z,15.06
2022-10-09T03:25:17.854Z,15.06
2022-10-09T03:26:23.602Z,15.04
2022-10-09T03:27:25.413Z,15.03
2022-10-09T03:28:28.248Z,15.04
2022-10-09T03:29:30.004Z,15.02
2022-10-09T03:30:31.745Z,15.00
2022-10-09T03:31:51.153Z,15.01
2022-10-09T03:32:53.913Z,15.00
2022-10-09T03:33:55.666Z,14.97
2022-10-09T03:34:57.369Z,14.96
2022-10-09T03:35:59.308Z,14.93
2022-10-09T03:37:01.024Z,14.94
2022-10-09T03:38:02.715Z,14.92
2022-10-09T03:39:04.435Z,14.92
2022-10-09T03:40:07.011Z,14.93
2022-10-09T03:41:08.854Z,14.92
2022-10-09T03:42:10.555Z,14.92
2022-10-09T03:43:12.436Z,14.91
2022-10-09T03:44:14.130Z,14.90
2022-10-09T03:45:15.997Z,14.90
2022-10-09T03:46:17.901Z,14.92
2022-10-09T03:47:19.693Z,14.89
2022-10-09T03:48:21.493Z,14.90
2022-10-09T03:49:23.201Z,14.89
2022-10-09T03:50:25.154Z,14.88
2022-10-09T03:51:27.355Z,14.86
2022-10-09T03:52:29.065Z,14.82
2022-10-09T03:53:30.960Z,14.83
2022-10-09T03:54:32.946Z,14.82
2022-10-09T03:55:34.961Z,14.80
2022-10-09T03:56:36.694Z,14.79
2022-10-09T03:57:38.590Z,14.78
2022-10-09T03:58:40.361Z,14.77
2022-10-09T03:59:42.113Z,14.73
2022-10-09T04:00:46.049Z,14.73
2022-10-09T04:01:47.790Z,14.72
2022-10-09T04:02:49.714Z,14.69
2022-10-09T04:03:51.697Z,14.69
2022-10-09T04:04:53.459Z,14.68
2022-10-09T04:05:55.213Z,14.68
2022-10-09T04:06:56.938Z,14.68
2022-10-09T04:07:58.698Z,14.66
2022-10-09T04:09:01.220Z,14.66
2022-10-09T04:10:05.246Z,14.66
2022-10-09T04:11:07.068Z,14.66
2022-10-09T04:12:08.892Z,14.64
2022-10-09T04:13:10.713Z,14.63
2022-10-09T04:14:12.911Z,14.63
2022-10-09T04:15:14.679Z,14.62
2022-10-09T04:16:16.455Z,14.62
2022-10-09T04:17:18.200Z,14.61
2022-10-09T04:18:20.786Z,14.61
2022-10-09T04:19:22.485Z,14.60
2022-10-09T04:20:24.342Z,14.61
2022-10-09T04:21:26.155Z,14.59
2022-10-09T04:22:28.290Z,14.58
2022-10-09T04:23:30.079Z,14.58
2022-10-09T04:24:31.809Z,14.59
2022-10-09T04:25:33.513Z,14.59
2022-10-09T04:26:36.379Z,14.58
2022-10-09T04:27:38.223Z,14.59
2022-10-09T04:28:40.301Z,14.57
2022-10-09T04:29:42.250Z,14.57
2022-10-09T04:30:43.952Z,14.53
2022-10-09T04:31:45.928Z,14.52
2022-10-09T04:32:48.503Z,14.54
2022-10-09T04:33:50.468Z,14.53
2022-10-09T04:34:52.191Z,14.53
2022-10-09T04:35:56.870Z,14.54
2022-10-09T04:36:58.589Z,14.52
2022-10-09T04:38:00.288Z,14.52
2022-10-09T04:39:02.073Z,14.50
2022-10-09T04:40:04.649Z,14.48
2022-10-09T04:41:07.571Z,14.50
2022-10-09T04:42:09.452Z,14.48
2022-10-09T04:43:11.220Z,14.48
2022-10-09T04:44:12.981Z,14.47
2022-10-09T04:45:14.796Z,14.46
2022-10-09T04:46:16.651Z,14.44
2022-10-09T04:47:18.548Z,14.44
2022-10-09T04:48:21.131Z,14.43
2022-10-09T04:49:22.932Z,14.43
2022-10-09T04:50:24.733Z,14.41
2022-10-09T04:51:26.441Z,14.39
2022-10-09T04:52:28.360Z,14.40
2022-10-09T04:53:30.076Z,14.40
2022-10-09T04:54:31.866Z,14.39
2022-10-09T04:55:37.984Z,14.38
2022-10-09T04:56:39.908Z,14.38
2022-10-09T04:57:41.691Z,14.37
2022-10-09T04:58:44.296Z,14.38
2022-10-09T04:59:46.204Z,14.34
2022-10-09T05:00:48.148Z,14.32
2022-10-09T05:01:49.951Z,14.33
2022-10-09T05:02:52.081Z,14.30
2022-10-09T05:03:54.646Z,14.34
2022-10-09T05:04:57.260Z,14.30
2022-10-09T05:06:04.294Z,14.32
2022-10-09T05:07:06.019Z,14.29
2022-10-09T05:08:07.861Z,14.29
2022-10-09T05:09:09.625Z,14.27
2022-10-09T05:10:11.428Z,14.27
2022-10-09T05:11:17.559Z,14.29
2022-10-09T05:12:19.259Z,14.27
2022-10-09T05:13:20.961Z,14.26
2022-10-09T05:14:22.748Z,14.27
2022-10-09T05:15:24.507Z,14.27
2022-10-09T05:16:29.212Z,14.23
2022-10-09T05:17:31.043Z,14.22
2022-10-09T05:18:34.344Z,14.20
2022-10-09T05:19:36.138Z,14.20
2022-10-09T05:20:41.577Z,14.21
2022-10-09T05:21:43.444Z,14.19
2022-10-09T05:22:46.301Z,14.18
2022-10-09T05:23:49.259Z,14.17
2022-10-09T05:24:50.983Z,14.16
2022-10-09T05:26:02.791Z,14.17
2022-10-09T05:27:04.644Z,14.17
2022-10-09T05:28:06.430Z,14.16
2022-10-09T05:29:08.310Z,14.16
2022-10-09T05:30:10.955Z,14.16
2022-10-09T05:31:38.898Z,14.14
2022-10-09T05:32:40.706Z,14.13
2022-10-09T05:33:42.412Z,14.12
2022-10-09T05:34:44.109Z,14.12
2022-10-09T05:35:59.047Z,14.13
2022-10-09T05:37:00.919Z,14.10
2022-10-09T05:38:02.643Z,14.09
2022-10-09T05:39:04.528Z,14.09
2022-10-09T05:40:07.256Z,14.10
2022-10-09T05:41:14.233Z,14.12
2022-10-09T05:42:15.949Z,14.10
2022-10-09T05:43:18.202Z,14.10
2022-10-09T05:44:19.956Z,14.09
2022-10-09T05:45:22.430Z,14.08
2022-10-09T05:46:25.398Z,14.09
2022-10-09T05:47:27.108Z,14.08
2022-10-09T05:48:28.848Z,14.07
2022-10-09T05:49:30.552Z,14.06
2022-10-09T05:50:32.263Z,14.06
2022-10-09T05:51:37.898Z,14.06
2022-10-09T05:52:39.999Z,14.05
2022-10-09T05:53:43.953Z,14.06
2022-10-09T05:54:45.748Z,14.04
2022-10-09T05:55:47.457Z,14.02
2022-10-09T05:56:49.190Z,14.04
2022-10-09T05:57:53.300Z,14.05
2022-10-09T05:59:01.962Z,14.04
2022-10-09T06:00:04.907Z,14.01
2022-10-09T06:01:08.793Z,13.99
2022-10-09T06:02:10.636Z,13.98
2022-10-09T06:03:12.441Z,14.00
2022-10-09T06:04:23.330Z,14.01
2022-10-09T06:05:25.052Z,13.99
2022-10-09T06:06:31.211Z,14.01
2022-10-09T06:07:32.923Z,14.01
2022-10-09T06:08:38.941Z,14.01
2022-10-09T06:09:40.678Z,13.99
2022-10-09T06:10:42.370Z,14.01
2022-10-09T06:11:44.599Z,13.98
2022-10-09T06:12:46.529Z,13.98
2022-10-09T06:13:49.650Z,14.00
2022-10-09T06:14:51.840Z,13.99
2022-10-09T06:15:54.703Z,14.01
2022-10-09T06:16:59.561Z,14.02
2022-10-09T06:18:01.383Z,14.03
2022-10-09T06:19:06.497Z,14.02
2022-10-09T06:20:08.812Z,14.01
2022-10-09T06:21:10.527Z,14.04
2022-10-09T06:22:12.256Z,14.04
2022-10-09T06:23:13.987Z,14.04
2022-10-09T06:24:28.772Z,14.07
2022-10-09T06:25:30.972Z,14.08
2022-10-09T06:26:33.359Z,14.08
2022-10-09T06:27:35.086Z,14.06
2022-10-09T06:28:37.292Z,14.09
2022-10-09T06:29:39.115Z,14.08
2022-10-09T06:30:40.843Z,14.11
2022-10-09T06:31:42.606Z,14.13
2022-10-09T06:32:44.330Z,14.12
2022-10-09T06:33:48.904Z,14.15
2022-10-09T06:34:50.607Z,14.15
2022-10-09T06:35:52.312Z,14.16
2022-10-09T06:36:54.039Z,14.18
2022-10-09T06:37:55.729Z,14.17
2022-10-09T06:39:04.652Z,14.19
2022-10-09T06:40:06.956Z,14.18
2022-10-09T06:41:18.302Z,14.20
2022-10-09T06:42:20.049Z,14.21
2022-10-09T06:43:22.008Z,14.19
2022-10-09T06:44:24.088Z,14.20
2022-10-09T06:45:25.997Z,14.20
2022-10-09T06:46:41.178Z,14.25
2022-10-09T06:47:42.872Z,14.25
2022-10-09T06:48:44.604Z,14.26
2022-10-09T06:49:46.350Z,14.28
2022-10-09T06:50:48.065Z,14.28
2022-10-09T06:51:49.775Z,14.31
2022-10-09T06:52:51.834Z,14.31
2022-10-09T06:53:56.383Z,14.36
2022-10-09T06:54:58.103Z,14.38
2022-10-09T06:55:59.842Z,14.38
2022-10-09T06:57:01.608Z,14.43
2022-10-09T06:58:03.484Z,14.44
2022-10-09T06:59:07.543Z,14.47
2022-10-09T07:00:09.986Z,14.46
2022-10-09T07:01:24.190Z,14.49
2022-10-09T07:02:25.943Z,14.52
2022-10-09T07:03:27.693Z,14.53
2022-10-09T07:04:29.582Z,14.55
2022-10-09T07:05:31.339Z,14.55
2022-10-09T07:06:38.067Z,14.57
2022-10-09T07:07:41.216Z,14.56
2022-10-09T07:08:47.555Z,14.58
2022-10-09T07:09:49.380Z,14.58
2022-10-09T07:10:51.090Z,14.59
2022-10-09T07:11:52.804Z,14.63
2022-10-09T07:12:54.519Z,14.62
2022-10-09T07:14:00.302Z,14.65
2022-10-09T07:15:03.118Z,14.65
2022-10-09T07:16:05.638Z,14.66
2022-10-09T07:17:07.447Z,14.67
2022-10-09T07:18:09.154Z,14.69
2022-10-09T07:19:12.538Z,14.71
2022-10-09T07:20:14.434Z,14.72
2022-10-09T07:21:16.773Z,14.75
2022-10-09T07:22:18.525Z,14.75
2022-10-09T07:23:20.281Z,14.77
2022-10-09T07:24:24.487Z,14.78
2022-10-09T07:25:26.245Z,14.82
2022-10-09T07:26:30.669Z,14.85
2022-10-09T07:27:32.751Z,14.85
2022-10-09T07:28:34.603Z,14.87
2022-10-09T07:29:36.569Z,14.89
2022-10-09T07:30:38.900Z,14.91
2022-10-09T07:31:40.732Z,14.94
2022-10-09T07:32:42.466Z,14.99
2022-10-09T07:33:48.527Z,15.01
2022-10-09T07:34:50.314Z,15.03
2022-10-09T07:36:00.806Z,15.06
2022-10-09T07:37:02.517Z,15.06
2022-10-09T07:38:04.734Z,15.07
2022-10-09T07:39:07.394Z,15.12
2022-10-09T07:40:09.703Z,15.13
2022-10-09T07:41:13.002Z,15.17
2022-10-09T07:42:26.174Z,15.20
2022-10-09T07:43:28.496Z,15.21
2022-10-09T07:44:30.258Z,15.24
2022-10-09T07:45:31.986Z,15.26
2022-10-09T07:46:34.394Z,15.30
2022-10-09T07:47:36.207Z,15.33
2022-10-09T07:48:38.535Z,15.35
2022-10-09T07:49:40.256Z,15.40
2022-10-09T07:50:42.031Z,15.42
2022-10-09T07:51:43.744Z,15.44
2022-10-09T07:52:45.468Z,15.47
2022-10-09T07:53:48.096Z,15.50
2022-10-09T07:54:49.808Z,15.52
2022-10-09T07:55:51.565Z,15.55
2022-10-09T07:56:53.384Z,15.58
2022-10-09T07:57:55.167Z,15.61
2022-10-09T07:59:04.132Z,15.65
2022-10-09T08:00:06.979Z,15.66
2022-10-09T08:01:09.999Z,15.67
2022-10-09T08:02:11.794Z,15.69
2022-10-09T08:03:13.621Z,15.72
2022-10-09T08:04:15.383Z,15.73
2022-10-09T08:05:17.187Z,15.74
2022-10-09T08:06:19.903Z,15.76
2022-10-09T08:07:21.618Z,15.78
2022-10-09T08:08:23.351Z,15.81
2022-10-09T08:09:25.181Z,15.83
2022-10-09T08:10:30.889Z,15.85
2022-10-09T08:11:33.666Z,15.88
2022-10-09T08:12:35.382Z,15.92
2022-10-09T08:13:38.047Z,15.97
2022-10-09T08:14:39.763Z,16.01
2022-10-09T08:15:43.392Z,16.04
2022-10-09T08:16:45.199Z,16.08
2022-10-09T08:17:46.994Z,16.12
2022-10-09T08:18:49.416Z,16.16
2022-10-09T08:19:51.204Z,16.21
2022-10-09T08:21:06.270Z,16.27
2022-10-09T08:22:08.130Z,16.31
2022-10-09T08:23:09.836Z,16.34
2022-10-09T08:24:12.353Z,16.38
2022-10-09T08:25:14.164Z,16.43
2022-10-09T08:26:22.005Z,16.49
2022-10-09T08:27:23.893Z,16.50
2022-10-09T08:28:25.950Z,16.56
2022-10-09T08:29:27.767Z,16.61
2022-10-09T08:30:29.697Z,16.66
2022-10-09T08:31:32.260Z,16.71
2022-10-09T08:32:34.248Z,16.75
2022-10-09T08:33:35.964Z,16.79
2022-10-09T08:34:37.733Z,16.85
2022-10-09T08:35:39.665Z,16.89
2022-10-09T08:36:41.446Z,16.94
2022-10-09T08:37:43.169Z,16.98
2022-10-09T08:38:47.657Z,17.07
2022-10-09T08:39:50.018Z,17.12
2022-10-09T08:41:06.265Z,17.20
2022-10-09T08:42:57.192Z,17.29
2022-10-09T08:44:07.177Z,17.40
2022-10-09T08:45:16.949Z,17.45
2022-10-09T08:47:18.938Z,17.57
2022-10-09T08:48:25.938Z,17.61
2022-10-09T08:49:42.630Z,17.68
2022-10-09T08:50:51.495Z,17.73
2022-10-09T08:52:00.167Z,17.77
2022-10-09T08:53:13.148Z,17.85
2022-10-09T08:54:37.749Z,17.92
2022-10-09T08:56:00.977Z,17.99
2022-10-09T08:57:12.282Z,18.05
2022-10-09T08:58:21.209Z,18.12
2022-10-09T08:59:23.031Z,18.16
2022-10-09T09:00:34.411Z,18.22
2022-10-09T09:01:50.130Z,18.29
2022-10-09T09:03:07.016Z,18.33
2022-10-09T09:04:27.303Z,18.42
2022-10-09T09:06:05.540Z,18.48
2022-10-09T09:07:39.096Z,18.54
2022-10-09T09:09:19.920Z,18.62
2022-10-09T09:10:41.367Z,18.67
2022-10-09T09:11:48.585Z,18.71
2022-10-09T09:13:04.067Z,18.77
2022-10-09T09:14:30.027Z,18.85
2022-10-09T09:16:09.362Z,18.91
2022-10-09T09:17:20.579Z,18.97
2022-10-09T09:18:58.804Z,19.01
2022-10-09T09:20:26.983Z,19.07
2022-10-09T09:21:41.378Z,19.12
2022-10-09T09:22:49.467Z,19.16
2022-10-09T09:23:51.744Z,19.20
2022-10-09T09:24:57.163Z,19.28
2022-10-09T09:25:59.612Z,19.31
2022-10-09T09:27:20.611Z,19.38
2022-10-09T09:28:25.538Z,19.44
2022-10-09T09:29:29.015Z,19.48
2022-10-09T09:30:45.780Z,19.57
2022-10-09T09:31:53.889Z,19.64
2022-10-09T09:33:46.181Z,19.77
2022-10-09T09:34:48.114Z,19.85
2022-10-09T09:36:09.602Z,19.96
2022-10-09T09:37:12.282Z,20.06
2022-10-09T09:38:15.213Z,20.16
2022-10-09T09:40:43.211Z,20.44
2022-10-09T09:41:47.710Z,20.62
2022-10-09T09:42:51.316Z,20.78
2022-10-09T09:43:53.393Z,21.00
2022-10-09T09:45:00.178Z,21.25
2022-10-09T09:46:02.313Z,21.49
2022-10-09T09:47:04.305Z,21.75
2022-10-09T09:48:20.611Z,22.07
2022-10-09T09:49:29.316Z,22.40
2022-10-09T09:50:50.621Z,22.74
2022-10-09T09:52:01.027Z,23.20
2022-10-09T09:53:33.795Z,23.72
2022-10-09T09:54:38.835Z,24.13
2022-10-09T09:55:40.704Z,24.60
2022-10-09T09:58:16.326Z,25.75
2022-10-09T09:59:35.570Z,26.31
2022-10-09T10:00:37.363Z,26.73
2022-10-09T10:01:39.162Z,27.12
2022-10-09T10:02:40.905Z,27.54
2022-10-09T10:03:50.698Z,28.04
2022-10-09T10:05:06.200Z,28.52
2022-10-09T10:06:21.789Z,29.07
2022-10-09T10:07:35.410Z,29.53
2022-10-09T10:08:37.186Z,29.93
2022-10-09T10:09:38.980Z,30.33
2022-10-09T10:10:47.686Z,30.72
2022-10-09T10:11:59.250Z,31.14
2022-10-09T10:13:01.417Z,31.54
2022-10-09T10:14:09.437Z,31.95
2022-10-09T10:15:21.283Z,32.33
2022-10-09T10:16:32.514Z,32.69
2022-10-09T10:17:37.185Z,33.03
2022-10-09T10:18:42.801Z,33.37
2022-10-09T10:19:50.741Z,33.65
2022-10-09T10:21:04.028Z,33.96
2022-10-09T10:22:23.307Z,34.28
2022-10-09T10:23:55.895Z,34.64
2022-10-09T10:24:59.618Z,34.94
2022-10-09T10:26:12.470Z,35.19
2022-10-09T10:27:40.823Z,35.48
2022-10-09T10:28:55.890Z,35.72
2022-10-09T10:30:05.850Z,35.93
2022-10-09T10:31:24.492Z,36.18
2022-10-09T10:32:49.850Z,36.39
2022-10-09T10:33:57.177Z,36.63
2022-10-09T10:35:01.822Z,36.79
2022-10-09T10:36:04.871Z,36.90
2022-10-09T10:37:16.112Z,37.03
2022-10-09T10:38:49.134Z,37.21
2022-10-09T10:40:20.040Z,37.40
2022-10-09T10:41:36.246Z,37.58
2022-10-09T10:42:57.497Z,37.73
2022-10-09T10:44:22.799Z,37.86
2022-10-09T10:45:39.562Z,37.98
2022-10-09T10:47:02.320Z,38.04
2022-10-09T10:48:09.400Z,38.13
2022-10-09T10:49:22.483Z,38.19
2022-10-09T10:50:39.034Z,38.20
2022-10-09T10:52:04.013Z,38.23
2022-10-09T10:54:04.618Z,38.22
2022-10-09T10:55:26.748Z,38.26
2022-10-09T10:56:32.973Z,38.32
2022-10-09T10:58:27.494Z,38.26
2022-10-09T10:59:47.424Z,38.32
2022-10-09T11:01:29.613Z,38.28
2022-10-09T11:03:00.873Z,38.31
2022-10-09T11:04:39.047Z,38.26
2022-10-09T11:05:57.577Z,38.27
2022-10-09T11:07:29.176Z,38.27
2022-10-09T11:09:05.800Z,38.19
2022-10-09T11:10:48.413Z,38.16
2022-10-09T11:12:02.312Z,38.18
2022-10-09T11:13:06.617Z,38.15
2022-10-09T11:14:39.045Z,38.09
2022-10-09T11:15:56.133Z,38.06
2022-10-09T11:18:00.578Z,37.93
2022-10-09T11:19:19.542Z,37.90
2022-10-09T11:20:53.246Z,37.75
2022-10-09T11:22:19.784Z,37.65
2022-10-09T11:24:12.181Z,37.42
2022-10-09T11:25:35.944Z,37.22
2022-10-09T11:27:17.761Z,37.04
2022-10-09T11:28:28.413Z,36.93
2022-10-09T11:29:43.610Z,36.76
2022-10-09T11:31:19.607Z,36.48
2022-10-09T11:33:11.214Z,36.32
2022-10-09T11:34:27.024Z,36.28
2022-10-09T11:35:44.353Z,36.09
2022-10-09T11:36:46.474Z,36.06
2022-10-09T11:38:02.332Z,35.90
2022-10-09T11:39:13.810Z,35.82
2022-10-09T11:40:24.255Z,35.71
2022-10-09T11:41:28.859Z,35.64
2022-10-09T11:42:31.403Z,35.53
2022-10-09T11:43:59.220Z,35.38
2022-10-09T11:45:27.159Z,35.09
2022-10-09T11:47:07.673Z,34.90
2022-10-09T11:48:50.407Z,34.63
2022-10-09T11:49:58.284Z,34.57
2022-10-09T11:51:35.309Z,34.30
2022-10-09T11:52:57.845Z,34.18
2022-10-09T11:54:01.782Z,34.11
2022-10-09T11:55:27.546Z,33.93
2022-10-09T11:56:32.117Z,33.88
2022-10-09T11:57:35.357Z,33.77
2022-10-09T11:58:37.204Z,33.68
2022-10-09T11:59:42.478Z,33.59
2022-10-09T12:00:47.054Z,33.48
2022-10-09T12:01:49.019Z,33.40
2022-10-09T12:03:00.828Z,33.28
2022-10-09T12:04:13.235Z,33.17
2022-10-09T12:05:34.539Z,33.05
2022-10-09T12:07:09.308Z,32.88
2022-10-09T12:08:19.777Z,32.85
2022-10-09T12:09:29.921Z,32.76
2022-10-09T12:10:34.692Z,32.70
2022-10-09T12:11:36.513Z,32.63
2022-10-09T12:12:38.783Z,32.53
2022-10-09T12:13:47.235Z,32.45
2022-10-09T12:14:52.765Z,32.37
2022-10-09T12:15:58.894Z,32.30
2022-10-09T12:17:01.755Z,32.23
2022-10-09T12:18:24.876Z,32.14
2022-10-09T12:19:40.838Z,32.07
2022-10-09T12:20:49.061Z,32.00
2022-10-09T12:21:56.618Z,31.92
2022-10-09T12:23:25.177Z,31.88
2022-10-09T12:24:30.566Z,31.79
2022-10-09T12:25:43.783Z,31.70
2022-10-09T12:26:48.903Z,31.65
2022-10-09T12:27:55.648Z,31.60
2022-10-09T12:29:04.891Z,31.52
2022-10-09T12:30:13.494Z,31.47
2022-10-09T12:31:36.743Z,31.40
2022-10-09T12:33:15.770Z,31.32
2022-10-09T12:34:34.549Z,31.23
2022-10-09T12:35:43.000Z,31.17
2022-10-09T12:36:44.760Z,31.12
2022-10-09T12:37:46.527Z,31.08
2022-10-09T12:38:48.567Z,31.05
2022-10-09T12:39:50.398Z,31.00
2022-10-09T12:40:55.838Z,30.95
2022-10-09T12:41:58.381Z,30.88
2022-10-09T12:43:07.914Z,30.83
2022-10-09T12:44:30.352Z,30.78
2022-10-09T12:45:32.333Z,30.72
2022-10-09T12:46:39.107Z,30.68
2022-10-09T12:47:40.992Z,30.63
2022-10-09T12:48:45.697Z,30.58
2022-10-09T12:50:12.340Z,30.52
2022-10-09T12:51:24.845Z,30.48
2022-10-09T12:52:27.142Z,30.43
2022-10-09T12:53:29.903Z,30.40
2022-10-09T12:54:31.756Z,30.35
2022-10-09T12:55:40.666Z,30.33
2022-10-09T12:56:42.693Z,30.26
2022-10-09T12:57:44.826Z,30.24
2022-10-09T12:58:46.808Z,30.20
2022-10-09T12:59:49.724Z,30.17
2022-10-09T13:00:56.638Z,30.12
2022-10-09T13:02:00.227Z,30.08
2022-10-09T13:03:02.416Z,30.03
2022-10-09T13:04:08.249Z,30.01
2022-10-09T13:05:09.974Z,29.95
2022-10-09T13:06:20.430Z,29.95
2022-10-09T13:07:26.300Z,29.93
2022-10-09T13:08:39.821Z,29.91
2022-10-09T13:09:41.684Z,29.88
2022-10-09T13:10:43.495Z,29.86
2022-10-09T13:11:52.945Z,29.84
2022-10-09T13:12:58.804Z,29.82
2022-10-09T13:14:01.886Z,29.77
2022-10-09T13:15:30.072Z,29.73
2022-10-09T13:16:44.205Z,29.71
2022-10-09T13:17:46.123Z,29.66
2022-10-09T13:19:03.298Z,29.64
2022-10-09T13:20:31.141Z,29.60
2022-10-09T13:21:35.320Z,29.57
2022-10-09T13:22:37.844Z,29.52
2022-10-09T13:23:39.647Z,29.49
2022-10-09T13:24:41.529Z,29.43
2022-10-09T13:25:44.225Z,29.40
2022-10-09T13:26:45.981Z,29.34
2022-10-09T13:27:48.152Z,29.29
2022-10-09T13:28:50.200Z,29.24
2022-10-09T13:29:52.011Z,29.19
2022-10-09T13:30:53.840Z,29.13
2022-10-09T13:31:55.604Z,29.08
2022-10-09T13:32:58.068Z,29.04
2022-10-09T13:34:14.460Z,28.97
2022-10-09T13:35:17.620Z,28.93
2022-10-09T13:36:20.712Z,28.85
2022-10-09T13:37:25.482Z,28.81
2022-10-09T13:38:29.312Z,28.76
2022-10-09T13:39:34.494Z,28.70
2022-10-09T13:40:36.211Z,28.67
2022-10-09T13:41:37.956Z,28.62
2022-10-09T13:42:39.776Z,28.57
2022-10-09T13:43:42.215Z,28.52
2022-10-09T13:44:44.018Z,28.46
2022-10-09T13:45:45.867Z,28.40
2022-10-09T13:46:47.620Z,28.33
2022-10-09T13:47:49.669Z,28.29
2022-10-09T13:48:51.658Z,28.27
2022-10-09T13:49:53.395Z,28.23
2022-10-09T13:50:55.230Z,28.20
2022-10-09T13:51:57.101Z,28.15
2022-10-09T13:53:00.104Z,28.10
2022-10-09T13:54:02.176Z,28.07
2022-10-09T13:55:05.248Z,28.04
2022-10-09T13:56:09.397Z,28.00
2022-10-09T13:57:11.119Z,27.94
2022-10-09T13:58:12.900Z,27.91
2022-10-09T13:59:14.733Z,27.86
2022-10-09T14:00:16.679Z,27.80
2022-10-09T14:01:18.530Z,27.78
2022-10-09T14:02:20.592Z,27.74
2022-10-09T14:03:22.403Z,27.70
2022-10-09T14:04:24.147Z,27.65
2022-10-09T14:05:26.781Z,27.63
2022-10-09T14:06:28.827Z,27.60
2022-10-09T14:07:30.870Z,27.56
2022-10-09T14:08:32.706Z,27.54
2022-10-09T14:09:34.489Z,27.53
2022-10-09T14:10:36.610Z,27.48
2022-10-09T14:11:38.357Z,27.43
2022-10-09T14:12:40.175Z,27.41
2022-10-09T14:13:42.033Z,27.37
2022-10-09T14:14:43.780Z,27.33
2022-10-09T14:15:45.504Z,27.30
2022-10-09T14:16:47.207Z,27.28
2022-10-09T14:17:49.207Z,27.22
2022-10-09T14:18:51.836Z,27.21
2022-10-09T14:19:53.641Z,27.17
2022-10-09T14:20:55.386Z,27.12
2022-10-09T14:21:58.208Z,27.07
2022-10-09T14:22:59.915Z,27.03
2022-10-09T14:24:05.559Z,27.00
2022-10-09T14:25:08.505Z,26.95
2022-10-09T14:26:10.237Z,26.93
2022-10-09T14:27:11.978Z,26.88
2022-10-09T14:28:13.700Z,26.83
2022-10-09T14:29:15.671Z,26.82